createdAt,value
2017-07-27T00:01:24.962Z,17.20
2017-07-27T00:03:53.200Z,17.20
2017-07-27T00:06:20.691Z,17.10
2017-07-27T00:08:48.232Z,17.10
2017-07-27T00:11:15.709Z,17.20
2017-07-27T00:13:43.170Z,17.10
2017-07-27T00:16:11.429Z,17.10
2017-07-27T00:18:38.995Z,17.10
2017-07-27T00:21:06.449Z,17.20
2017-07-27T00:23:34.686Z,17.20
2017-07-27T00:26:02.175Z,17.20
2017-07-27T00:28:29.628Z,17.20
2017-07-27T00:30:57.081Z,17.20
2017-07-27T00:33:24.656Z,17.20
2017-07-27T00:35:52.211Z,17.20
2017-07-27T00:38:19.762Z,17.20
2017-07-27T00:40:47.317Z,17.20
2017-07-27T00:43:14.773Z,17.20
2017-07-27T00:45:42.338Z,17.20
2017-07-27T00:48:09.908Z,17.20
2017-07-27T00:50:37.556Z,17.20
2017-07-27T00:53:07.942Z,17.20
2017-07-27T00:55:35.412Z,17.20
2017-07-27T00:58:02.956Z,17.30
2017-07-27T01:00:30.418Z,17.40
2017-07-27T01:02:57.879Z,17.40
2017-07-27T01:05:25.351Z,17.40
2017-07-27T01:07:52.802Z,17.40
2017-07-27T01:10:20.273Z,17.40
2017-07-27T01:12:47.734Z,17.40
2017-07-27T01:15:15.301Z,17.40
2017-07-27T01:17:42.768Z,17.40
2017-07-27T01:20:10.986Z,17.30
2017-07-27T01:22:38.458Z,17.30
2017-07-27T01:25:05.948Z,17.20
2017-07-27T01:27:34.933Z,17.20
2017-07-27T01:30:02.410Z,17.20
2017-07-27T01:32:30.670Z,17.30
2017-07-27T01:34:58.142Z,17.20
2017-07-27T01:37:26.403Z,17.20
2017-07-27T01:39:53.953Z,17.20
2017-07-27T01:42:21.519Z,17.20
2017-07-27T01:44:48.973Z,17.30
2017-07-27T01:47:16.530Z,17.20
2017-07-27T01:49:44.096Z,17.20
2017-07-27T01:52:11.648Z,17.20
2017-07-27T01:54:39.114Z,17.30
2017-07-27T01:57:06.569Z,17.30
2017-07-27T01:59:34.123Z,17.30
2017-07-27T02:02:01.678Z,17.20
2017-07-27T02:04:29.243Z,17.30
2017-07-27T02:06:56.695Z,17.30
2017-07-27T02:09:24.267Z,17.30
2017-07-27T02:11:52.485Z,17.40
2017-07-27T02:14:19.959Z,17.40
2017-07-27T02:16:47.438Z,17.40
2017-07-27T02:19:15.003Z,17.40
2017-07-27T02:21:42.459Z,17.40
2017-07-27T02:24:09.934Z,17.40
2017-07-27T02:26:38.193Z,17.30
2017-07-27T02:29:05.750Z,17.30
2017-07-27T02:31:33.310Z,17.30
2017-07-27T02:34:00.854Z,17.30
2017-07-27T02:36:28.409Z,17.30
2017-07-27T02:38:55.885Z,17.40
2017-07-27T02:41:23.443Z,17.40
2017-07-27T02:43:50.989Z,17.40
2017-07-27T02:46:18.555Z,17.40
2017-07-27T02:48:46.119Z,17.50
2017-07-27T02:51:13.675Z,17.40
2017-07-27T02:53:41.225Z,17.40
2017-07-27T02:56:08.795Z,17.40
2017-07-27T02:58:36.352Z,17.40
2017-07-27T03:01:03.902Z,17.30
2017-07-27T03:03:31.471Z,17.20
2017-07-27T03:05:59.027Z,17.20
2017-07-27T03:08:26.480Z,17.10
2017-07-27T03:10:54.037Z,17.00
2017-07-27T03:13:21.603Z,17.00
2017-07-27T03:15:49.058Z,16.90
2017-07-27T03:18:17.311Z,17.00
2017-07-27T03:20:44.774Z,16.90
2017-07-27T03:23:13.025Z,17.00
2017-07-27T03:25:40.528Z,17.00
2017-07-27T03:28:07.985Z,16.90
2017-07-27T03:30:36.254Z,17.00
2017-07-27T03:33:03.811Z,16.90
2017-07-27T03:35:31.275Z,17.00
2017-07-27T03:37:58.742Z,17.00
2017-07-27T03:40:26.965Z,16.90
2017-07-27T03:42:54.447Z,16.90
2017-07-27T03:45:21.915Z,16.90
2017-07-27T03:47:49.470Z,16.90
2017-07-27T03:50:17.031Z,17.00
2017-07-27T03:52:44.590Z,17.00
2017-07-27T03:55:12.241Z,17.00
2017-07-27T03:57:39.714Z,17.00
2017-07-27T04:00:07.937Z,16.90
2017-07-27T04:02:35.430Z,16.90
2017-07-27T04:05:03.015Z,16.90
2017-07-27T04:07:31.270Z,16.80
2017-07-27T04:09:58.747Z,16.70
2017-07-27T04:12:27.009Z,16.80
2017-07-27T04:14:55.250Z,16.80
2017-07-27T04:17:22.739Z,16.70
2017-07-27T04:19:50.291Z,16.80
2017-07-27T04:22:17.854Z,16.90
2017-07-27T04:24:45.415Z,16.90
2017-07-27T04:27:12.974Z,16.90
2017-07-27T04:29:40.430Z,16.90
2017-07-27T04:32:07.978Z,16.90
2017-07-27T04:34:35.442Z,16.90
2017-07-27T04:37:03.017Z,16.80
2017-07-27T04:39:31.250Z,16.90
2017-07-27T04:41:58.840Z,16.80
2017-07-27T04:44:26.303Z,16.90
2017-07-27T04:46:54.558Z,16.80
2017-07-27T04:49:22.115Z,16.70
2017-07-27T04:51:49.691Z,16.70
2017-07-27T04:54:17.248Z,16.80
2017-07-27T04:56:56.565Z,16.90
2017-07-27T04:59:24.035Z,16.80
2017-07-27T05:01:51.599Z,16.90
2017-07-27T05:04:19.843Z,16.80
2017-07-27T05:06:47.298Z,16.70
2017-07-27T05:09:14.777Z,16.90
2017-07-27T05:11:42.429Z,17.00
2017-07-27T05:14:09.894Z,17.00
2017-07-27T05:16:37.454Z,17.00
2017-07-27T05:19:04.931Z,17.10
2017-07-27T05:21:33.158Z,17.10
2017-07-27T05:24:00.635Z,17.00
2017-07-27T05:26:28.108Z,17.20
2017-07-27T05:28:55.579Z,17.30
2017-07-27T05:31:23.798Z,17.50
2017-07-27T05:33:51.295Z,17.40
2017-07-27T05:36:18.851Z,17.60
2017-07-27T05:38:46.309Z,17.60
2017-07-27T05:41:13.917Z,17.60
2017-07-27T05:43:41.365Z,17.60
2017-07-27T05:46:08.869Z,17.60
2017-07-27T05:48:36.429Z,17.60
2017-07-27T05:51:03.903Z,17.80
2017-07-27T05:53:32.222Z,17.80
2017-07-27T05:55:59.673Z,17.70
2017-07-27T05:58:27.177Z,17.70
2017-07-27T06:00:54.751Z,17.70
2017-07-27T06:03:22.977Z,17.50
2017-07-27T06:05:50.452Z,17.50
2017-07-27T06:08:17.910Z,17.40
2017-07-27T06:10:45.371Z,17.30
2017-07-27T06:13:12.849Z,17.20
2017-07-27T06:15:40.314Z,17.10
2017-07-27T06:18:08.558Z,17.20
2017-07-27T06:20:36.024Z,17.20
2017-07-27T06:23:03.491Z,17.40
2017-07-27T06:25:30.937Z,17.50
2017-07-27T06:27:58.505Z,17.60
2017-07-27T06:30:25.962Z,17.70
2017-07-27T06:32:53.426Z,17.90
2017-07-27T06:35:21.660Z,18.10
2017-07-27T06:37:49.128Z,18.00
2017-07-27T06:40:16.577Z,18.20
2017-07-27T06:42:44.067Z,18.30
2017-07-27T06:45:11.531Z,18.40
2017-07-27T06:47:39.805Z,18.60
2017-07-27T06:50:07.251Z,18.50
2017-07-27T06:52:34.811Z,18.70
2017-07-27T06:55:02.388Z,18.70
2017-07-27T06:57:30.616Z,18.90
2017-07-27T06:59:58.103Z,18.80
2017-07-27T07:02:25.680Z,18.90
2017-07-27T07:04:53.934Z,18.90
2017-07-27T07:07:21.441Z,18.90
2017-07-27T07:09:48.911Z,18.90
2017-07-27T07:12:16.382Z,19.00
2017-07-27T07:14:43.837Z,19.10
2017-07-27T07:17:11.327Z,19.30
2017-07-27T07:19:39.596Z,19.50
2017-07-27T07:22:07.063Z,19.40
2017-07-27T07:24:35.327Z,19.60
2017-07-27T07:27:03.608Z,19.90
2017-07-27T07:29:31.928Z,20.00
2017-07-27T07:31:59.444Z,19.90
2017-07-27T07:34:27.669Z,19.90
2017-07-27T07:36:55.135Z,19.80
2017-07-27T07:39:22.608Z,19.90
2017-07-27T07:41:50.179Z,20.10
2017-07-27T07:44:17.733Z,20.10
2017-07-27T07:46:45.298Z,20.10
2017-07-27T07:49:12.810Z,20.20
2017-07-27T07:51:40.262Z,20.20
2017-07-27T07:54:07.718Z,20.20
2017-07-27T07:56:35.187Z,20.20
2017-07-27T07:59:02.688Z,20.30
2017-07-27T08:01:30.154Z,20.40
2017-07-27T08:03:58.783Z,20.60
2017-07-27T08:06:26.298Z,20.60
2017-07-27T08:09:05.867Z,20.60
2017-07-27T08:11:33.431Z,20.60
2017-07-27T08:14:00.890Z,20.70
2017-07-27T08:16:28.388Z,20.80
2017-07-27T08:18:55.850Z,20.90
2017-07-27T08:21:23.315Z,20.90
2017-07-27T08:23:50.867Z,21.00
2017-07-27T08:26:18.318Z,21.10
2017-07-27T08:28:45.781Z,21.10
2017-07-27T08:31:13.246Z,21.10
2017-07-27T08:33:41.752Z,21.40
2017-07-27T08:36:09.265Z,21.30
2017-07-27T08:38:36.818Z,21.50
2017-07-27T08:41:04.287Z,21.60
2017-07-27T08:43:31.837Z,21.80
2017-07-27T08:45:59.422Z,21.90
2017-07-27T08:48:27.683Z,22.00
2017-07-27T08:50:55.247Z,21.90
2017-07-27T08:53:22.711Z,22.20
2017-07-27T08:55:50.966Z,22.30
2017-07-27T08:58:18.531Z,22.30
2017-07-27T09:00:46.064Z,22.30
2017-07-27T09:03:13.642Z,22.50
2017-07-27T09:05:41.105Z,22.60
2017-07-27T09:08:08.662Z,22.70
2017-07-27T09:10:36.213Z,22.60
2017-07-27T09:13:03.773Z,22.50
2017-07-27T09:15:31.346Z,22.50
2017-07-27T09:17:58.799Z,22.60
2017-07-27T09:20:26.366Z,22.80
2017-07-27T09:22:54.595Z,23.30
2017-07-27T09:25:22.053Z,23.30
2017-07-27T09:27:49.522Z,23.50
2017-07-27T09:30:16.986Z,23.30
2017-07-27T09:32:44.451Z,23.20
2017-07-27T09:35:11.916Z,23.20
2017-07-27T09:37:39.373Z,23.10
2017-07-27T09:40:06.943Z,23.00
2017-07-27T09:42:34.422Z,23.00
2017-07-27T09:45:01.937Z,23.20
2017-07-27T09:47:29.415Z,23.30
2017-07-27T09:49:57.665Z,23.30
2017-07-27T09:52:25.231Z,23.30
2017-07-27T09:54:52.799Z,23.20
2017-07-27T09:57:25.954Z,23.10
2017-07-27T09:59:53.448Z,23.10
2017-07-27T10:02:21.724Z,23.30
2017-07-27T10:04:49.946Z,23.60
2017-07-27T10:07:18.267Z,24.10
2017-07-27T10:09:45.823Z,24.10
2017-07-27T10:12:13.373Z,24.20
2017-07-27T10:14:40.933Z,24.20
2017-07-27T10:17:08.391Z,24.50
2017-07-27T10:19:35.862Z,24.40
2017-07-27T10:22:03.404Z,24.40
2017-07-27T10:24:31.681Z,24.20
2017-07-27T10:26:59.137Z,24.00
2017-07-27T10:29:26.697Z,23.60
2017-07-27T10:31:54.269Z,23.50
2017-07-27T10:34:21.785Z,23.50
2017-07-27T10:36:49.280Z,23.50
2017-07-27T10:39:17.716Z,23.40
2017-07-27T10:41:45.370Z,23.30
2017-07-27T10:44:12.829Z,23.20
2017-07-27T10:46:40.333Z,23.30
2017-07-27T10:49:07.882Z,23.40
2017-07-27T10:51:35.442Z,23.50
2017-07-27T10:54:02.893Z,23.40
2017-07-27T10:56:30.367Z,23.20
2017-07-27T10:58:57.909Z,23.00
2017-07-27T11:01:25.474Z,22.80
2017-07-27T11:03:53.214Z,22.70
2017-07-27T11:06:20.693Z,22.50
2017-07-27T11:08:48.249Z,22.50
2017-07-27T11:11:15.818Z,22.40
2017-07-27T11:13:43.283Z,22.40
2017-07-27T11:16:11.541Z,22.20
2017-07-27T11:18:38.997Z,22.20
2017-07-27T11:21:06.558Z,22.20
2017-07-27T11:23:34.123Z,22.10
2017-07-27T11:26:01.595Z,22.10
2017-07-27T11:28:29.821Z,22.10
2017-07-27T11:30:57.288Z,22.00
2017-07-27T11:33:24.750Z,22.00
2017-07-27T11:35:52.219Z,22.00
2017-07-27T11:38:19.774Z,21.80
2017-07-27T11:40:47.234Z,21.70
2017-07-27T11:43:14.788Z,21.70
2017-07-27T11:45:42.256Z,21.70
2017-07-27T11:48:09.730Z,21.70
2017-07-27T11:50:37.966Z,21.60
2017-07-27T11:53:05.537Z,21.60
2017-07-27T11:55:33.053Z,21.60
2017-07-27T11:58:00.571Z,21.60
2017-07-27T12:00:28.846Z,21.40
2017-07-27T12:02:57.113Z,21.30
2017-07-27T12:05:24.687Z,21.30
2017-07-27T12:07:52.945Z,21.10
2017-07-27T12:10:20.528Z,21.10
2017-07-27T12:12:48.739Z,21.20
2017-07-27T12:15:16.214Z,21.10
2017-07-27T12:17:43.679Z,21.20
2017-07-27T12:20:11.249Z,21.10
2017-07-27T12:22:38.816Z,21.00
2017-07-27T12:25:07.093Z,20.70
2017-07-27T12:27:34.553Z,20.60
2017-07-27T12:30:02.809Z,20.40
2017-07-27T12:32:30.266Z,20.30
2017-07-27T12:34:57.830Z,20.30
2017-07-27T12:37:25.382Z,20.20
2017-07-27T12:39:52.955Z,20.20
2017-07-27T12:42:20.500Z,20.20
2017-07-27T12:44:47.961Z,20.30
2017-07-27T12:47:15.485Z,20.40
2017-07-27T12:49:42.940Z,20.40
2017-07-27T12:52:10.434Z,20.30
2017-07-27T12:54:37.985Z,20.30
2017-07-27T12:57:05.559Z,20.20
2017-07-27T12:59:33.119Z,20.30
2017-07-27T13:02:00.674Z,20.30
2017-07-27T13:04:28.130Z,20.30
2017-07-27T13:06:55.690Z,20.20
2017-07-27T13:09:23.241Z,20.30
2017-07-27T13:11:50.734Z,20.40
2017-07-27T13:14:18.263Z,20.40
2017-07-27T13:16:45.824Z,20.40
2017-07-27T13:19:13.289Z,20.30
2017-07-27T13:21:41.516Z,20.50
2017-07-27T13:24:09.011Z,20.50
2017-07-27T13:26:36.465Z,20.70
2017-07-27T13:29:04.023Z,20.70
2017-07-27T13:31:31.983Z,20.70
2017-07-27T13:33:59.450Z,20.70
2017-07-27T13:36:27.007Z,20.60
2017-07-27T13:38:54.557Z,20.50
2017-07-27T13:41:22.026Z,20.50
2017-07-27T13:43:49.566Z,20.60
2017-07-27T13:46:17.167Z,20.60
2017-07-27T13:48:44.698Z,20.60
2017-07-27T13:51:12.167Z,20.70
2017-07-27T13:53:40.399Z,20.60
2017-07-27T13:56:07.878Z,20.60
2017-07-27T13:58:35.344Z,20.60
2017-07-27T14:01:02.924Z,20.60
2017-07-27T14:03:30.449Z,20.70
2017-07-27T14:05:57.918Z,20.70
2017-07-27T14:08:25.466Z,20.80
2017-07-27T14:10:52.938Z,20.90
2017-07-27T14:13:20.507Z,21.00
2017-07-27T14:15:48.757Z,21.30
2017-07-27T14:18:16.213Z,21.20
2017-07-27T14:20:43.773Z,21.50
2017-07-27T14:23:11.229Z,21.70
2017-07-27T14:25:38.847Z,21.80
2017-07-27T14:28:06.320Z,22.10
2017-07-27T14:30:33.806Z,22.10
2017-07-27T14:33:01.268Z,22.20
2017-07-27T14:35:28.817Z,22.60
2017-07-27T14:37:56.384Z,23.10
2017-07-27T14:40:23.933Z,23.40
2017-07-27T14:42:51.498Z,23.40
2017-07-27T14:45:19.063Z,22.90
2017-07-27T14:47:46.532Z,22.60
2017-07-27T14:50:14.777Z,22.30
2017-07-27T14:52:42.251Z,22.30
2017-07-27T14:55:09.798Z,22.20
2017-07-27T14:57:37.257Z,22.30
2017-07-27T15:00:04.824Z,22.40
2017-07-27T15:02:32.374Z,22.70
2017-07-27T15:04:59.938Z,23.30
2017-07-27T15:07:27.414Z,23.50
2017-07-27T15:09:55.646Z,23.70
2017-07-27T15:12:23.097Z,23.70
2017-07-27T15:14:50.580Z,23.80
2017-07-27T15:17:18.822Z,23.30
2017-07-27T15:19:46.319Z,23.30
2017-07-27T15:22:13.859Z,23.50
2017-07-27T15:24:41.327Z,23.40
2017-07-27T15:27:08.886Z,23.30
2017-07-27T15:29:36.437Z,23.30
2017-07-27T15:32:03.906Z,23.40
2017-07-27T15:34:31.465Z,23.40
2017-07-27T15:36:59.055Z,23.50
2017-07-27T15:39:26.590Z,23.50
2017-07-27T15:41:54.850Z,23.70
2017-07-27T15:44:22.306Z,23.60
2017-07-27T15:46:49.902Z,23.60
2017-07-27T15:49:17.353Z,23.60
2017-07-27T15:51:45.664Z,23.50
2017-07-27T15:54:13.163Z,23.50
2017-07-27T15:56:40.716Z,23.60
2017-07-27T15:59:08.274Z,23.70
2017-07-27T16:01:35.881Z,23.70
2017-07-27T16:04:03.335Z,23.90
2017-07-27T16:06:30.810Z,24.10
2017-07-27T16:08:58.275Z,24.10
2017-07-27T16:11:25.758Z,24.30
2017-07-27T16:13:53.331Z,24.30
2017-07-27T16:16:20.784Z,24.30
2017-07-27T16:18:49.023Z,23.90
2017-07-27T16:21:16.515Z,23.90
2017-07-27T16:23:44.066Z,23.70
2017-07-27T16:26:11.559Z,23.60
2017-07-27T16:28:39.010Z,23.40
2017-07-27T16:31:07.242Z,23.40
2017-07-27T16:33:34.693Z,23.40
2017-07-27T16:36:02.178Z,23.40
2017-07-27T16:38:29.735Z,23.40
2017-07-27T16:40:57.296Z,23.30
2017-07-27T16:43:25.526Z,23.00
2017-07-27T16:45:53.014Z,22.90
2017-07-27T16:48:20.600Z,22.80
2017-07-27T16:50:48.821Z,22.60
2017-07-27T16:53:16.363Z,22.60
2017-07-27T16:55:43.925Z,22.60
2017-07-27T16:58:11.424Z,22.60
2017-07-27T17:00:38.995Z,22.70
2017-07-27T17:03:06.463Z,22.70
2017-07-27T17:05:34.723Z,22.80
2017-07-27T17:08:02.270Z,22.80
2017-07-27T17:10:29.841Z,22.90
2017-07-27T17:12:57.384Z,22.80
2017-07-27T17:15:24.906Z,22.70
2017-07-27T17:17:52.375Z,22.50
2017-07-27T17:20:19.853Z,22.50
2017-07-27T17:22:47.310Z,22.70
2017-07-27T17:25:14.774Z,22.90
2017-07-27T17:27:42.247Z,23.00
2017-07-27T17:30:10.478Z,22.80
2017-07-27T17:32:37.961Z,22.80
2017-07-27T17:35:05.527Z,22.80
2017-07-27T17:37:33.077Z,22.70
2017-07-27T17:40:00.602Z,22.60
2017-07-27T17:42:28.093Z,22.60
2017-07-27T17:44:55.585Z,22.60
2017-07-27T17:47:23.825Z,22.70
2017-07-27T17:49:51.325Z,22.60
2017-07-27T17:52:18.851Z,22.60
2017-07-27T17:54:46.319Z,22.60
2017-07-27T17:57:14.573Z,22.50
2017-07-27T17:59:42.139Z,22.50
2017-07-27T18:02:09.699Z,22.40
2017-07-27T18:04:37.175Z,22.40
2017-07-27T18:07:05.411Z,22.30
2017-07-27T18:09:32.903Z,22.30
2017-07-27T18:12:01.147Z,22.30
2017-07-27T18:14:28.609Z,22.30
2017-07-27T18:16:56.178Z,22.20
2017-07-27T18:19:23.725Z,22.20
2017-07-27T18:21:51.182Z,22.20
2017-07-27T18:24:18.752Z,22.20
2017-07-27T18:26:46.223Z,22.20
2017-07-27T18:29:14.478Z,22.00
2017-07-27T18:31:42.051Z,22.00
2017-07-27T18:34:10.283Z,21.90
2017-07-27T18:36:37.738Z,21.90
2017-07-27T18:39:05.231Z,21.90
2017-07-27T18:41:32.699Z,21.90
2017-07-27T18:44:00.939Z,21.90
2017-07-27T18:46:28.410Z,21.80
2017-07-27T18:48:55.978Z,21.70
2017-07-27T18:51:23.462Z,21.70
2017-07-27T18:53:51.000Z,21.70
2017-07-27T18:56:18.453Z,21.60
2017-07-27T18:58:46.002Z,21.50
2017-07-27T19:01:14.274Z,21.40
2017-07-27T19:03:41.834Z,21.40
2017-07-27T19:06:09.302Z,21.30
2017-07-27T19:08:37.566Z,21.30
2017-07-27T19:11:05.147Z,21.30
2017-07-27T19:13:33.415Z,21.10
2017-07-27T19:16:00.967Z,21.10
2017-07-27T19:18:28.431Z,20.80
2017-07-27T19:20:56.732Z,20.30
2017-07-27T19:23:24.210Z,20.20
2017-07-27T19:25:51.715Z,20.00
2017-07-27T19:28:19.270Z,19.80
2017-07-27T19:30:46.835Z,19.80
2017-07-27T19:33:14.391Z,19.80
2017-07-27T19:35:41.950Z,19.80
2017-07-27T19:38:09.501Z,19.70
2017-07-27T19:40:36.964Z,19.60
2017-07-27T19:43:04.451Z,19.50
2017-07-27T19:45:31.984Z,19.40
2017-07-27T19:47:59.634Z,19.40
2017-07-27T19:50:27.199Z,19.20
2017-07-27T19:52:54.755Z,19.00
2017-07-27T19:55:22.305Z,18.90
2017-07-27T19:57:49.881Z,18.80
2017-07-27T20:00:17.334Z,18.70
2017-07-27T20:02:44.793Z,18.60
2017-07-27T20:05:13.057Z,18.70
2017-07-27T20:07:40.520Z,18.60
2017-07-27T20:10:08.070Z,18.70
2017-07-27T20:12:35.538Z,18.80
2017-07-27T20:15:03.002Z,18.80
2017-07-27T20:17:31.257Z,18.80
2017-07-27T20:19:58.717Z,18.80
2017-07-27T20:22:26.273Z,18.80
2017-07-27T20:24:53.754Z,18.80
2017-07-27T20:27:22.005Z,18.70
2017-07-27T20:29:49.474Z,18.70
2017-07-27T20:32:17.025Z,18.70
2017-07-27T20:34:44.493Z,18.80
2017-07-27T20:37:12.727Z,18.80
2017-07-27T20:39:40.213Z,18.70
2017-07-27T20:42:07.681Z,18.80
2017-07-27T20:44:35.917Z,18.80
2017-07-27T20:47:03.397Z,18.70
2017-07-27T20:49:30.954Z,18.80
2017-07-27T20:51:58.401Z,18.80
2017-07-27T20:54:25.965Z,18.80
2017-07-27T20:56:53.539Z,18.80
2017-07-27T20:59:21.095Z,18.80
2017-07-27T21:01:50.081Z,18.80
2017-07-27T21:04:17.643Z,18.80
2017-07-27T21:06:45.203Z,18.80
2017-07-27T21:09:13.475Z,18.80
2017-07-27T21:11:40.989Z,18.80
2017-07-27T21:14:08.491Z,18.80
2017-07-27T21:16:35.956Z,18.80
2017-07-27T21:19:03.507Z,18.80
2017-07-27T21:21:31.077Z,18.80
2017-07-27T21:23:59.375Z,18.80
2017-07-27T21:26:27.624Z,18.80
2017-07-27T21:28:55.092Z,18.80
2017-07-27T21:31:23.341Z,18.80
2017-07-27T21:33:50.897Z,18.70
2017-07-27T21:36:18.364Z,18.70
2017-07-27T21:38:45.926Z,18.70
2017-07-27T21:41:13.387Z,18.70
2017-07-27T21:43:40.934Z,18.70
2017-07-27T21:46:08.380Z,18.80
2017-07-27T21:48:35.949Z,18.70
2017-07-27T21:51:03.524Z,18.70
2017-07-27T21:53:30.977Z,18.60
2017-07-27T21:55:59.207Z,18.50
2017-07-27T21:58:26.708Z,18.50
2017-07-27T22:00:54.257Z,18.50
2017-07-27T22:03:21.818Z,18.40
2017-07-27T22:05:49.383Z,18.30
2017-07-27T22:08:16.925Z,18.20
2017-07-27T22:10:44.400Z,18.10
2017-07-27T22:13:11.896Z,18.20
2017-07-27T22:15:39.415Z,18.20
2017-07-27T22:18:06.890Z,18.20
2017-07-27T22:20:35.137Z,18.20
2017-07-27T22:23:02.609Z,18.20
2017-07-27T22:25:30.877Z,18.30
2017-07-27T22:27:58.340Z,18.20
2017-07-27T22:30:26.585Z,18.30
2017-07-27T22:32:54.167Z,18.30
2017-07-27T22:35:21.718Z,18.30
2017-07-27T22:37:49.165Z,18.20
2017-07-27T22:40:16.743Z,18.30
2017-07-27T22:42:44.298Z,18.30
2017-07-27T22:45:11.850Z,18.30
2017-07-27T22:47:39.415Z,18.30
2017-07-27T22:50:06.974Z,18.30
2017-07-27T22:52:34.421Z,18.30
2017-07-27T22:55:01.991Z,18.30
2017-07-27T22:57:29.462Z,18.30
2017-07-27T22:59:57.717Z,18.20
2017-07-27T23:02:25.991Z,18.20
2017-07-27T23:04:53.546Z,18.10
2017-07-27T23:07:21.001Z,18.10
2017-07-27T23:09:48.468Z,18.10
2017-07-27T23:12:16.027Z,18.10
2017-07-27T23:14:43.586Z,18.10
2017-07-27T23:17:11.182Z,18.10
2017-07-27T23:19:38.707Z,18.10
2017-07-27T23:22:06.250Z,18.10
2017-07-27T23:24:33.719Z,18.00
2017-07-27T23:27:01.181Z,18.00
2017-07-27T23:29:29.407Z,18.10
2017-07-27T23:31:56.900Z,18.10
2017-07-27T23:34:24.463Z,18.10
2017-07-27T23:36:52.023Z,18.10
2017-07-27T23:39:19.484Z,18.10
2017-07-27T23:41:46.945Z,18.10
2017-07-27T23:44:15.215Z,18.10
2017-07-27T23:46:42.670Z,18.00
2017-07-27T23:49:10.227Z,18.00
2017-07-27T23:51:37.777Z,18.00
2017-07-27T23:54:05.243Z,18.00
2017-07-27T23:56:32.803Z,18.00
2017-07-27T23:59:00.261Z,18.00
